sensor_id;sensor_type;location;lat;lon;timestamp;pressure;altitude;pressure_sealevel;temperature;humidity
5812;BME280;2932;52.400;9.558;2023-10-09T00:00:24;101360.41;;;18.08;63.02
5812;BME280;2932;52.400;9.558;2023-10-09T00:03:05;101368.06;;;18.11;63.44
5812;BME280;2932;52.400;9.558;2023-10-09T00:05:31;101351.63;;;18.10;63.11
5812;BME280;2932;52.400;9.558;2023-10-09T00:08:23;101334.00;;;18.09;63.04
5812;BME280;2932;52.400;9.558;2023-10-09T00:10:59;101324.84;;;18.12;63.64
5812;BME280;2932;52.400;9.558;2023-10-09T00:13:39;101317.53;;;18.04;63.79
5812;BME280;2932;52.400;9.558;2023-10-09T00:16:15;101322.72;;;18.02;63.78
5812;BME280;2932;52.400;9.558;2023-10-09T00:18:49;101308.28;;;18.00;64.22
5812;BME280;2932;52.400;9.558;2023-10-09T00:21:16;101299.97;;;18.07;63.66
5812;BME280;2932;52.400;9.558;2023-10-09T00:23:48;101298.47;;;18.13;63.74
5812;BME280;2932;52.400;9.558;2023-10-09T00:26:27;101305.19;;;18.09;63.70
5812;BME280;2932;52.400;9.558;2023-10-09T00:28:56;101305.63;;;18.11;63.68
5812;BME280;2932;52.400;9.558;2023-10-09T00:31:21;101294.44;;;18.11;63.62
5812;BME280;2932;52.400;9.558;2023-10-09T00:33:59;101277.19;;;18.09;64.00
5812;BME280;2932;52.400;9.558;2023-10-09T00:36:30;101280.75;;;18.06;64.13
5812;BME280;2932;52.400;9.558;2023-10-09T00:38:58;101285.13;;;18.03;64.43
5812;BME280;2932;52.400;9.558;2023-10-09T00:41:26;101279.19;;;18.08;64.57
5812;BME280;2932;52.400;9.558;2023-10-09T00:43:54;101258.72;;;18.04;64.28
5812;BME280;2932;52.400;9.558;2023-10-09T00:46:24;101259.06;;;17.95;64.40
5812;BME280;2932;52.400;9.558;2023-10-09T00:48:53;101247.03;;;17.95;64.99
5812;BME280;2932;52.400;9.558;2023-10-09T00:51:19;101247.72;;;17.85;65.00
5812;BME280;2932;52.400;9.558;2023-10-09T00:53:57;101250.28;;;17.97;65.11
5812;BME280;2932;52.400;9.558;2023-10-09T00:56:24;101239.41;;;17.92;64.58
5812;BME280;2932;52.400;9.558;2023-10-09T00:58:53;101253.41;;;17.92;65.19
5812;BME280;2932;52.400;9.558;2023-10-09T01:01:27;101266.66;;;17.95;64.70
5812;BME280;2932;52.400;9.558;2023-10-09T01:04:04;101274.63;;;17.93;65.25
5812;BME280;2932;52.400;9.558;2023-10-09T01:06:41;101271.13;;;18.03;64.86
5812;BME280;2932;52.400;9.558;2023-10-09T01:09:14;101277.53;;;18.04;64.77
5812;BME280;2932;52.400;9.558;2023-10-09T01:11:43;101279.19;;;18.08;65.00
5812;BME280;2932;52.400;9.558;2023-10-09T01:14:31;101270.06;;;18.15;65.11
5812;BME280;2932;52.400;9.558;2023-10-09T01:17:02;101260.94;;;18.21;64.98
5812;BME280;2932;52.400;9.558;2023-10-09T01:19:27;101267.41;;;18.25;64.63
5812;BME280;2932;52.400;9.558;2023-10-09T01:21:56;101262.59;;;18.26;64.42
5812;BME280;2932;52.400;9.558;2023-10-09T01:24:42;101264.09;;;18.16;64.94
5812;BME280;2932;52.400;9.558;2023-10-09T01:27:08;101257.38;;;18.24;65.02
5812;BME280;2932;52.400;9.558;2023-10-09T01:29:40;101259.44;;;18.27;64.65
5812;BME280;2932;52.400;9.558;2023-10-09T01:32:07;101256.19;;;18.25;65.02
5812;BME280;2932;52.400;9.558;2023-10-09T01:34:34;101240.16;;;18.22;64.98
5812;BME280;2932;52.400;9.558;2023-10-09T01:37:11;101226.63;;;18.28;64.84
5812;BME280;2932;52.400;9.558;2023-10-09T01:39:46;101211.81;;;18.27;64.62
5812;BME280;2932;52.400;9.558;2023-10-09T01:42:14;101207.81;;;18.28;65.00
5812;BME280;2932;52.400;9.558;2023-10-09T01:44:49;101211.75;;;18.24;64.96
5812;BME280;2932;52.400;9.558;2023-10-09T01:47:14;101214.19;;;18.25;65.17
5812;BME280;2932;52.400;9.558;2023-10-09T01:49:40;101214.91;;;18.19;65.35
5812;BME280;2932;52.400;9.558;2023-10-09T01:52:11;101210.56;;;18.25;65.41
5812;BME280;2932;52.400;9.558;2023-10-09T01:54:41;101203.34;;;18.24;65.45
5812;BME280;2932;52.400;9.558;2023-10-09T01:57:08;101210.97;;;18.23;65.88
5812;BME280;2932;52.400;9.558;2023-10-09T01:59:48;101207.78;;;18.25;65.73
5812;BME280;2932;52.400;9.558;2023-10-09T02:02:15;101205.81;;;18.29;66.08
5812;BME280;2932;52.400;9.558;2023-10-09T02:07:52;101173.00;;;18.29;66.27
5812;BME280;2932;52.400;9.558;2023-10-09T02:12:56;101157.31;;;18.21;67.20
5812;BME280;2932;52.400;9.558;2023-10-09T02:15:26;101146.50;;;18.20;67.14
5812;BME280;2932;52.400;9.558;2023-10-09T02:18:06;101150.09;;;18.20;67.62
5812;BME280;2932;52.400;9.558;2023-10-09T02:20:49;101149.34;;;18.23;67.94
5812;BME280;2932;52.400;9.558;2023-10-09T02:23:30;101144.19;;;18.29;68.48
5812;BME280;2932;52.400;9.558;2023-10-09T02:26:12;101140.22;;;18.33;68.63
5812;BME280;2932;52.400;9.558;2023-10-09T02:28:53;101129.00;;;18.30;68.25
5812;BME280;2932;52.400;9.558;2023-10-09T02:31:29;101136.88;;;18.17;68.57
5812;BME280;2932;52.400;9.558;2023-10-09T02:34:09;101137.22;;;18.12;69.81
5812;BME280;2932;52.400;9.558;2023-10-09T02:36:36;101134.47;;;18.19;70.12
5812;BME280;2932;52.400;9.558;2023-10-09T02:39:09;101131.69;;;18.19;69.65
5812;BME280;2932;52.400;9.558;2023-10-09T02:41:57;101128.84;;;18.16;70.35
5812;BME280;2932;52.400;9.558;2023-10-09T02:44:45;101128.84;;;18.16;70.48
5812;BME280;2932;52.400;9.558;2023-10-09T02:47:19;101120.84;;;18.14;70.24
5812;BME280;2932;52.400;9.558;2023-10-09T02:49:48;101114.06;;;18.19;70.54
5812;BME280;2932;52.400;9.558;2023-10-09T02:52:14;101107.31;;;18.23;70.45
5812;BME280;2932;52.400;9.558;2023-10-09T02:54:44;101106.88;;;18.18;70.20
5812;BME280;2932;52.400;9.558;2023-10-09T02:57:12;101110.47;;;18.18;70.60
5812;BME280;2932;52.400;9.558;2023-10-09T02:59:53;101121.25;;;18.16;71.42
5812;BME280;2932;52.400;9.558;2023-10-09T03:02:18;101116.91;;;18.22;71.05
5812;BME280;2932;52.400;9.558;2023-10-09T03:04:44;101099.25;;;18.18;71.83
5812;BME280;2932;52.400;9.558;2023-10-09T03:07:09;101096.84;;;18.17;71.94
5812;BME280;2932;52.400;9.558;2023-10-09T03:09:35;101092.03;;;18.14;71.61
5812;BME280;2932;52.400;9.558;2023-10-09T03:12:02;101083.13;;;18.05;71.60
5812;BME280;2932;52.400;9.558;2023-10-09T03:14:29;101077.56;;;18.08;72.15
5812;BME280;2932;52.400;9.558;2023-10-09T03:16:56;101065.59;;;18.11;72.00
5812;BME280;2932;52.400;9.558;2023-10-09T03:19:23;101054.00;;;18.13;71.55
5812;BME280;2932;52.400;9.558;2023-10-09T03:21:50;101042.84;;;18.16;71.34
5812;BME280;2932;52.400;9.558;2023-10-09T03:24:15;101039.63;;;18.14;71.65
5812;BME280;2932;52.400;9.558;2023-10-09T03:26:41;101036.75;;;18.07;71.45
5812;BME280;2932;52.400;9.558;2023-10-09T03:29:06;101045.53;;;18.06;72.45
5812;BME280;2932;52.400;9.558;2023-10-09T03:31:35;101039.38;;;17.86;72.55
5812;BME280;2932;52.400;9.558;2023-10-09T03:34:05;101044.13;;;17.82;72.53
5812;BME280;2932;52.400;9.558;2023-10-09T03:36:30;101047.72;;;17.82;73.70
5812;BME280;2932;52.400;9.558;2023-10-09T03:38:56;101041.75;;;17.84;72.93
5812;BME280;2932;52.400;9.558;2023-10-09T03:41:26;101050.22;;;17.91;73.05
5812;BME280;2932;52.400;9.558;2023-10-09T03:43:52;101030.06;;;17.75;73.16
5812;BME280;2932;52.400;9.558;2023-10-09T03:46:19;101028.06;;;17.75;73.75
5812;BME280;2932;52.400;9.558;2023-10-09T03:48:51;101032.78;;;17.67;73.47
5812;BME280;2932;52.400;9.558;2023-10-09T03:51:17;101035.59;;;17.67;73.40
5812;BME280;2932;52.400;9.558;2023-10-09T03:53:49;101032.00;;;17.71;73.59
5812;BME280;2932;52.400;9.558;2023-10-09T03:56:18;101034.81;;;17.71;73.93
5812;BME280;2932;52.400;9.558;2023-10-09T03:58:50;101046.78;;;17.67;73.94
5812;BME280;2932;52.400;9.558;2023-10-09T04:03:47;101056.81;;;17.72;74.64
5812;BME280;2932;52.400;9.558;2023-10-09T04:06:12;101059.69;;;17.79;74.41
5812;BME280;2932;52.400;9.558;2023-10-09T04:08:38;101063.38;;;17.87;74.90
5812;BME280;2932;52.400;9.558;2023-10-09T04:11:10;101055.06;;;17.94;74.92
5812;BME280;2932;52.400;9.558;2023-10-09T04:13:44;101055.88;;;17.98;74.97
5812;BME280;2932;52.400;9.558;2023-10-09T04:16:14;101049.88;;;17.99;74.72
5812;BME280;2932;52.400;9.558;2023-10-09T04:18:56;101041.53;;;18.07;74.69
5812;BME280;2932;52.400;9.558;2023-10-09T04:21:22;101040.69;;;17.99;74.62
5812;BME280;2932;52.400;9.558;2023-10-09T04:24:07;101043.72;;;17.80;74.81
5812;BME280;2932;52.400;9.558;2023-10-09T04:26:43;101049.09;;;17.28;76.72
5812;BME280;2932;52.400;9.558;2023-10-09T04:29:16;101050.06;;;16.80;78.89
5812;BME280;2932;52.400;9.558;2023-10-09T04:32:03;101047.00;;;16.62;81.12
5812;BME280;2932;52.400;9.558;2023-10-09T04:34:32;101052.91;;;16.30;82.56
5812;BME280;2932;52.400;9.558;2023-10-09T04:37:01;101041.88;;;16.41;83.54
5812;BME280;2932;52.400;9.558;2023-10-09T04:39:44;101033.78;;;16.32;85.01
5812;BME280;2932;52.400;9.558;2023-10-09T04:42:14;101038.78;;;16.20;86.29
5812;BME280;2932;52.400;9.558;2023-10-09T04:45:05;101042.19;;;16.10;87.80
5812;BME280;2932;52.400;9.558;2023-10-09T04:47:31;101037.47;;;16.40;88.11
5812;BME280;2932;52.400;9.558;2023-10-09T04:50:22;101031.09;;;16.40;88.15
5812;BME280;2932;52.400;9.558;2023-10-09T04:52:54;101031.00;;;16.59;87.90
5812;BME280;2932;52.400;9.558;2023-10-09T04:55:19;101043.50;;;16.65;88.12
5812;BME280;2932;52.400;9.558;2023-10-09T04:57:50;101048.75;;;16.70;87.75
5812;BME280;2932;52.400;9.558;2023-10-09T05:00:34;101063.97;;;16.73;88.02
5812;BME280;2932;52.400;9.558;2023-10-09T05:03:01;101052.09;;;16.79;87.86
5812;BME280;2932;52.400;9.558;2023-10-09T05:05:32;101055.25;;;16.78;87.73
5812;BME280;2932;52.400;9.558;2023-10-09T05:10:48;101041.47;;;16.92;87.48
5812;BME280;2932;52.400;9.558;2023-10-09T05:13:39;101056.75;;;16.72;87.98
5812;BME280;2932;52.400;9.558;2023-10-09T05:18:51;101067.47;;;16.43;89.23
5812;BME280;2932;52.400;9.558;2023-10-09T05:21:40;101065.16;;;16.49;89.56
5812;BME280;2932;52.400;9.558;2023-10-09T05:24:09;101080.09;;;16.33;89.82
5812;BME280;2932;52.400;9.558;2023-10-09T05:26:48;101079.84;;;16.19;90.73
5812;BME280;2932;52.400;9.558;2023-10-09T05:29:24;101069.13;;;16.48;90.31
5812;BME280;2932;52.400;9.558;2023-10-09T05:32:05;101069.81;;;16.41;90.23
5812;BME280;2932;52.400;9.558;2023-10-09T05:34:53;101059.81;;;16.40;89.96
5812;BME280;2932;52.400;9.558;2023-10-09T05:37:29;101061.25;;;16.53;90.03
5812;BME280;2932;52.400;9.558;2023-10-09T05:40:03;101046.03;;;16.51;89.77
5812;BME280;2932;52.400;9.558;2023-10-09T05:42:45;101030.25;;;16.36;89.67
5812;BME280;2932;52.400;9.558;2023-10-09T05:45:12;101041.09;;;16.41;89.61
5812;BME280;2932;52.400;9.558;2023-10-09T05:47:59;101060.84;;;16.28;90.19
5812;BME280;2932;52.400;9.558;2023-10-09T05:50:50;101065.00;;;16.38;89.75
5812;BME280;2932;52.400;9.558;2023-10-09T05:53:15;101091.88;;;16.23;90.40
5812;BME280;2932;52.400;9.558;2023-10-09T05:56:03;101098.66;;;16.22;90.63
5812;BME280;2932;52.400;9.558;2023-10-09T05:58:47;101121.75;;;16.46;90.12
5812;BME280;2932;52.400;9.558;2023-10-09T06:01:31;101062.97;;;16.35;89.90
5812;BME280;2932;52.400;9.558;2023-10-09T06:04:15;101084.94;;;16.37;89.97
5812;BME280;2932;52.400;9.558;2023-10-09T06:06:44;101106.84;;;16.34;90.44
5812;BME280;2932;52.400;9.558;2023-10-09T06:09:11;101087.28;;;16.34;90.63
5812;BME280;2932;52.400;9.558;2023-10-09T06:11:46;101066.13;;;16.33;90.35
5812;BME280;2932;52.400;9.558;2023-10-09T06:14:22;101081.75;;;16.38;90.54
5812;BME280;2932;52.400;9.558;2023-10-09T06:16:57;101070.44;;;16.54;90.14
5812;BME280;2932;52.400;9.558;2023-10-09T06:19:26;101066.66;;;16.43;90.02
5812;BME280;2932;52.400;9.558;2023-10-09T06:24:38;101065.16;;;16.72;89.00
5812;BME280;2932;52.400;9.558;2023-10-09T06:27:20;101062.59;;;16.89;88.55
5812;BME280;2932;52.400;9.558;2023-10-09T06:29:58;101070.78;;;16.75;88.30
5812;BME280;2932;52.400;9.558;2023-10-09T06:32:42;101074.22;;;16.65;88.58
5812;BME280;2932;52.400;9.558;2023-10-09T06:35:20;101083.59;;;16.80;88.77
5812;BME280;2932;52.400;9.558;2023-10-09T06:37:56;101087.38;;;16.64;88.36
5812;BME280;2932;52.400;9.558;2023-10-09T06:43:07;101094.06;;;16.60;89.73
5812;BME280;2932;52.400;9.558;2023-10-09T06:45:35;101090.84;;;16.58;89.13
5812;BME280;2932;52.400;9.558;2023-10-09T06:48:09;101090.09;;;16.61;89.23
5812;BME280;2932;52.400;9.558;2023-10-09T06:50:53;101092.66;;;16.70;88.77
5812;BME280;2932;52.400;9.558;2023-10-09T06:53:29;101077.00;;;16.65;89.19
5812;BME280;2932;52.400;9.558;2023-10-09T06:56:14;101085.56;;;16.53;89.36
5812;BME280;2932;52.400;9.558;2023-10-09T06:59:08;101091.72;;;16.62;89.53
5812;BME280;2932;52.400;9.558;2023-10-09T07:02:00;101091.09;;;16.72;89.59
5812;BME280;2932;52.400;9.558;2023-10-09T07:04:45;101084.94;;;16.63;89.36
5812;BME280;2932;52.400;9.558;2023-10-09T07:07:11;101080.53;;;16.62;89.53
5812;BME280;2932;52.400;9.558;2023-10-09T07:09:41;101068.69;;;16.69;89.54
5812;BME280;2932;52.400;9.558;2023-10-09T07:12:32;101072.16;;;16.88;89.05
5812;BME280;2932;52.400;9.558;2023-10-09T07:15:02;101065.75;;;16.88;88.85
5812;BME280;2932;52.400;9.558;2023-10-09T07:17:30;101063.97;;;17.03;88.70
5812;BME280;2932;52.400;9.558;2023-10-09T07:19:58;101068.28;;;16.96;88.10
5812;BME280;2932;52.400;9.558;2023-10-09T07:22:35;101065.59;;;17.04;88.52
5812;BME280;2932;52.400;9.558;2023-10-09T07:25:05;101059.09;;;16.96;88.58
5812;BME280;2932;52.400;9.558;2023-10-09T07:27:48;101061.13;;;16.99;88.92
5812;BME280;2932;52.400;9.558;2023-10-09T07:30:20;101055.69;;;17.10;88.77
5812;BME280;2932;52.400;9.558;2023-10-09T07:32:57;101056.66;;;16.94;89.49
5812;BME280;2932;52.400;9.558;2023-10-09T07:35:36;101058.19;;;17.18;89.17
5812;BME280;2932;52.400;9.558;2023-10-09T07:38:16;101065.34;;;17.16;89.27
5812;BME280;2932;52.400;9.558;2023-10-09T07:40:45;101064.88;;;17.10;89.87
5812;BME280;2932;52.400;9.558;2023-10-09T07:43:31;101049.34;;;17.13;89.52
5812;BME280;2932;52.400;9.558;2023-10-09T07:46:10;101049.38;;;17.16;90.33
5812;BME280;2932;52.400;9.558;2023-10-09T07:48:55;101047.88;;;17.26;89.81
5812;BME280;2932;52.400;9.558;2023-10-09T07:51:21;101045.31;;;17.10;90.70
5812;BME280;2932;52.400;9.558;2023-10-09T07:53:48;101039.72;;;17.10;91.30
5812;BME280;2932;52.400;9.558;2023-10-09T07:56:15;101032.13;;;17.11;91.17
5812;BME280;2932;52.400;9.558;2023-10-09T07:58:46;101036.66;;;17.22;91.09
5812;BME280;2932;52.400;9.558;2023-10-09T08:01:12;101031.91;;;17.26;91.75
5812;BME280;2932;52.400;9.558;2023-10-09T08:03:42;101037.38;;;17.16;92.06
5812;BME280;2932;52.400;9.558;2023-10-09T08:06:11;101025.47;;;17.22;92.32
5812;BME280;2932;52.400;9.558;2023-10-09T08:08:55;101014.84;;;17.02;92.73
5812;BME280;2932;52.400;9.558;2023-10-09T08:11:48;101021.69;;;17.08;93.02
5812;BME280;2932;52.400;9.558;2023-10-09T08:14:40;101021.00;;;17.14;93.36
5812;BME280;2932;52.400;9.558;2023-10-09T08:17:06;101032.59;;;17.16;92.68
5812;BME280;2932;52.400;9.558;2023-10-09T08:19:42;101031.44;;;17.21;92.59
5812;BME280;2932;52.400;9.558;2023-10-09T08:22:28;101021.34;;;17.46;91.60
5812;BME280;2932;52.400;9.558;2023-10-09T08:24:53;101018.81;;;17.34;91.54
5812;BME280;2932;52.400;9.558;2023-10-09T08:27:28;101032.03;;;17.37;91.75
5812;BME280;2932;52.400;9.558;2023-10-09T08:30:14;101020.66;;;17.56;91.82
5812;BME280;2932;52.400;9.558;2023-10-09T08:32:51;101010.97;;;17.47;91.57
5812;BME280;2932;52.400;9.558;2023-10-09T08:35:48;101018.63;;;17.53;91.23
5812;BME280;2932;52.400;9.558;2023-10-09T08:38:15;101027.19;;;17.67;90.69
5812;BME280;2932;52.400;9.558;2023-10-09T08:40:48;101033.84;;;17.56;90.70
5812;BME280;2932;52.400;9.558;2023-10-09T08:43:20;101033.81;;;17.52;90.92
5812;BME280;2932;52.400;9.558;2023-10-09T08:48:18;101040.03;;;17.39;90.84
5812;BME280;2932;52.400;9.558;2023-10-09T08:50:47;101047.50;;;17.27;91.13
5812;BME280;2932;52.400;9.558;2023-10-09T08:53:15;101050.72;;;17.29;91.34
5812;BME280;2932;52.400;9.558;2023-10-09T08:55:44;101042.13;;;17.45;90.58
5812;BME280;2932;52.400;9.558;2023-10-09T08:58:09;101047.41;;;17.20;91.07
5812;BME280;2932;52.400;9.558;2023-10-09T09:00:52;101039.28;;;17.42;91.27
5812;BME280;2932;52.400;9.558;2023-10-09T09:03:21;101046.66;;;17.60;90.63
5812;BME280;2932;52.400;9.558;2023-10-09T09:06:01;101042.25;;;17.56;90.30
5812;BME280;2932;52.400;9.558;2023-10-09T09:08:28;101049.75;;;17.48;90.56
5812;BME280;2932;52.400;9.558;2023-10-09T09:11:08;101043.66;;;17.39;91.30
5812;BME280;2932;52.400;9.558;2023-10-09T09:16:29;101040.50;;;17.44;91.80
5812;BME280;2932;52.400;9.558;2023-10-09T09:19:04;101043.03;;;17.23;92.31
5812;BME280;2932;52.400;9.558;2023-10-09T09:21:32;101027.06;;;17.23;92.47
5812;BME280;2932;52.400;9.558;2023-10-09T09:24:06;101018.94;;;17.45;92.52
5812;BME280;2932;52.400;9.558;2023-10-09T09:26:40;101030.34;;;17.29;92.79
5812;BME280;2932;52.400;9.558;2023-10-09T09:29:13;101030.66;;;17.57;92.40
5812;BME280;2932;52.400;9.558;2023-10-09T09:31:56;101037.19;;;17.35;91.72
5812;BME280;2932;52.400;9.558;2023-10-09T09:34:51;101042.75;;;17.31;91.59
5812;BME280;2932;52.400;9.558;2023-10-09T09:37:22;101058.03;;;17.75;91.00
5812;BME280;2932;52.400;9.558;2023-10-09T09:39:57;101073.88;;;18.00;90.29
5812;BME280;2932;52.400;9.558;2023-10-09T09:42:23;101080.47;;;18.19;89.51
5812;BME280;2932;52.400;9.558;2023-10-09T09:44:52;101052.38;;;18.12;88.45
5812;BME280;2932;52.400;9.558;2023-10-09T09:47:18;101044.69;;;18.02;88.82
5812;BME280;2932;52.400;9.558;2023-10-09T09:49:53;101058.53;;;17.84;89.29
5812;BME280;2932;52.400;9.558;2023-10-09T09:52:26;101063.44;;;17.94;89.65
5812;BME280;2932;52.400;9.558;2023-10-09T09:54:52;101079.81;;;17.92;90.09
5812;BME280;2932;52.400;9.558;2023-10-09T09:57:20;101076.69;;;17.97;89.53
5812;BME280;2932;52.400;9.558;2023-10-09T09:59:51;101080.59;;;17.89;89.44
5812;BME280;2932;52.400;9.558;2023-10-09T10:02:22;101081.00;;;17.91;89.80
5812;BME280;2932;52.400;9.558;2023-10-09T10:04:53;101072.50;;;17.80;90.11
5812;BME280;2932;52.400;9.558;2023-10-09T10:07:20;101068.56;;;17.85;90.22
5812;BME280;2932;52.400;9.558;2023-10-09T10:09:47;101072.84;;;17.75;90.23
5812;BME280;2932;52.400;9.558;2023-10-09T10:12:15;101069.41;;;17.89;90.47
5812;BME280;2932;52.400;9.558;2023-10-09T10:14:59;101075.22;;;17.73;91.05
5812;BME280;2932;52.400;9.558;2023-10-09T10:20:26;101071.28;;;17.78;91.45
5812;BME280;2932;52.400;9.558;2023-10-09T10:23:20;101057.84;;;17.60;92.51
5812;BME280;2932;52.400;9.558;2023-10-09T10:25:50;101064.97;;;17.51;93.16
5812;BME280;2932;52.400;9.558;2023-10-09T10:28:23;101067.81;;;17.54;93.41
5812;BME280;2932;52.400;9.558;2023-10-09T10:31:10;101068.50;;;17.81;92.53
5812;BME280;2932;52.400;9.558;2023-10-09T10:36:20;101081.25;;;17.42;93.79
5812;BME280;2932;52.400;9.558;2023-10-09T10:39:03;101073.22;;;17.40;93.85
5812;BME280;2932;52.400;9.558;2023-10-09T10:41:56;101066.44;;;17.41;94.29
5812;BME280;2932;52.400;9.558;2023-10-09T10:44:28;101065.66;;;17.41;93.88
5812;BME280;2932;52.400;9.558;2023-10-09T10:47:08;101065.72;;;17.48;94.37
5812;BME280;2932;52.400;9.558;2023-10-09T10:49:54;101065.22;;;17.72;94.06
5812;BME280;2932;52.400;9.558;2023-10-09T10:52:33;101060.66;;;17.60;93.64
5812;BME280;2932;52.400;9.558;2023-10-09T10:55:11;101049.75;;;17.48;94.67
5812;BME280;2932;52.400;9.558;2023-10-09T10:57:55;101053.81;;;17.54;94.42
5812;BME280;2932;52.400;9.558;2023-10-09T11:00:31;101040.16;;;17.49;95.04
5812;BME280;2932;52.400;9.558;2023-10-09T11:03:19;101046.56;;;17.50;94.91
5812;BME280;2932;52.400;9.558;2023-10-09T11:05:54;101036.41;;;17.34;95.81
5812;BME280;2932;52.400;9.558;2023-10-09T11:08:24;101041.22;;;17.38;96.57
5812;BME280;2932;52.400;9.558;2023-10-09T11:10:53;101037.38;;;17.49;96.21
5812;BME280;2932;52.400;9.558;2023-10-09T11:13:35;101037.50;;;17.63;95.99
5812;BME280;2932;52.400;9.558;2023-10-09T11:16:17;101041.06;;;17.57;95.91
5812;BME280;2932;52.400;9.558;2023-10-09T11:19:01;101044.28;;;17.62;95.08
5812;BME280;2932;52.400;9.558;2023-10-09T11:21:39;101046.84;;;17.75;94.80
5812;BME280;2932;52.400;9.558;2023-10-09T11:24:08;101042.03;;;17.72;94.94
5812;BME280;2932;52.400;9.558;2023-10-09T11:26:49;101039.28;;;17.79;95.21
5812;BME280;2932;52.400;9.558;2023-10-09T11:29:19;101050.00;;;17.70;94.99
5812;BME280;2932;52.400;9.558;2023-10-09T11:32:18;101046.69;;;17.64;95.23
5812;BME280;2932;52.400;9.558;2023-10-09T11:34:48;101047.28;;;17.77;95.00
5812;BME280;2932;52.400;9.558;2023-10-09T11:37:18;101055.72;;;17.80;94.97
5812;BME280;2932;52.400;9.558;2023-10-09T11:39:57;101051.88;;;17.95;94.64
5812;BME280;2932;52.400;9.558;2023-10-09T11:42:24;101047.06;;;17.96;93.96
5812;BME280;2932;52.400;9.558;2023-10-09T11:45:26;101056.41;;;17.70;94.67
5812;BME280;2932;52.400;9.558;2023-10-09T11:48:15;101059.19;;;17.70;94.67
5812;BME280;2932;52.400;9.558;2023-10-09T11:50:47;101056.84;;;17.76;94.91
5812;BME280;2932;52.400;9.558;2023-10-09T11:53:27;101060.91;;;17.82;94.32
5812;BME280;2932;52.400;9.558;2023-10-09T11:55:53;101059.81;;;17.90;94.15
5812;BME280;2932;52.400;9.558;2023-10-09T11:58:19;101070.09;;;17.79;94.64
5812;BME280;2932;52.400;9.558;2023-10-09T12:00:58;101075.34;;;17.84;95.03
5812;BME280;2932;52.400;9.558;2023-10-09T12:03:31;101071.56;;;17.69;94.65
5812;BME280;2932;52.400;9.558;2023-10-09T12:06:01;101070.72;;;17.65;95.42
5812;BME280;2932;52.400;9.558;2023-10-09T12:08:34;101065.94;;;17.65;95.82
5812;BME280;2932;52.400;9.558;2023-10-09T12:11:00;101063.22;;;17.73;95.88
5812;BME280;2932;52.400;9.558;2023-10-09T12:13:29;101070.09;;;17.79;95.39
5812;BME280;2932;52.400;9.558;2023-10-09T12:15:56;101072.03;;;17.75;95.72
5812;BME280;2932;52.400;9.558;2023-10-09T12:18:23;101066.41;;;17.71;95.44
5812;BME280;2932;52.400;9.558;2023-10-09T12:20:49;101066.41;;;17.71;96.13
5812;BME280;2932;52.400;9.558;2023-10-09T12:23:17;101069.28;;;17.78;96.12
5812;BME280;2932;52.400;9.558;2023-10-09T12:25:42;101073.63;;;17.72;95.88
5812;BME280;2932;52.400;9.558;2023-10-09T12:28:10;101072.19;;;17.89;95.37
5812;BME280;2932;52.400;9.558;2023-10-09T12:30:37;101076.09;;;17.81;95.70
5812;BME280;2932;52.400;9.558;2023-10-09T12:33:05;101079.28;;;17.79;95.62
5812;BME280;2932;52.400;9.558;2023-10-09T12:35:38;101067.63;;;17.74;96.17
5812;BME280;2932;52.400;9.558;2023-10-09T12:38:05;101081.09;;;17.64;96.90
5812;BME280;2932;52.400;9.558;2023-10-09T12:40:36;101073.31;;;17.81;96.54
5812;BME280;2932;52.400;9.558;2023-10-09T12:43:01;101077.88;;;17.62;97.07
5812;BME280;2932;52.400;9.558;2023-10-09T12:45:27;101088.88;;;17.78;97.26
5812;BME280;2932;52.400;9.558;2023-10-09T12:47:58;101074.75;;;17.67;97.67
5812;BME280;2932;52.400;9.558;2023-10-09T12:50:33;101065.78;;;17.88;97.10
5812;BME280;2932;52.400;9.558;2023-10-09T12:52:59;101064.91;;;17.81;97.63
5812;BME280;2932;52.400;9.558;2023-10-09T12:55:28;101068.22;;;17.90;97.81
5812;BME280;2932;52.400;9.558;2023-10-09T12:58:00;101068.91;;;17.80;98.06
5812;BME280;2932;52.400;9.558;2023-10-09T13:00:32;101058.97;;;17.86;98.05
5812;BME280;2932;52.400;9.558;2023-10-09T13:02:57;101062.25;;;17.95;97.88
5812;BME280;2932;52.400;9.558;2023-10-09T13:05:26;101062.25;;;17.95;98.39
5812;BME280;2932;52.400;9.558;2023-10-09T13:07:52;101053.91;;;17.98;98.26
5812;BME280;2932;52.400;9.558;2023-10-09T13:10:19;101060.66;;;17.94;98.36
5812;BME280;2932;52.400;9.558;2023-10-09T13:12:44;101061.41;;;17.91;98.09
5812;BME280;2932;52.400;9.558;2023-10-09T13:15:10;101059.53;;;18.06;98.53
5812;BME280;2932;52.400;9.558;2023-10-09T13:17:39;101061.44;;;17.94;98.06
5812;BME280;2932;52.400;9.558;2023-10-09T13:20:05;101058.06;;;18.19;97.78
5812;BME280;2932;52.400;9.558;2023-10-09T13:22:44;101058.66;;;17.94;97.77
5812;BME280;2932;52.400;9.558;2023-10-09T13:25:13;101071.97;;;18.08;98.18
5812;BME280;2932;52.400;9.558;2023-10-09T13:27:44;101060.47;;;18.20;97.60
5812;BME280;2932;52.400;9.558;2023-10-09T13:30:18;101064.53;;;18.26;97.62
5812;BME280;2932;52.400;9.558;2023-10-09T13:32:50;101064.53;;;18.26;97.01
5812;BME280;2932;52.400;9.558;2023-10-09T13:35:18;101059.25;;;18.18;97.18
5812;BME280;2932;52.400;9.558;2023-10-09T13:37:45;101062.28;;;17.98;98.34
5812;BME280;2932;52.400;9.558;2023-10-09T13:40:20;101059.91;;;18.04;98.25
5812;BME280;2932;52.400;9.558;2023-10-09T13:42:55;101060.31;;;18.03;98.10
5812;BME280;2932;52.400;9.558;2023-10-09T13:45:27;101043.66;;;18.20;98.35
5812;BME280;2932;52.400;9.558;2023-10-09T13:47:57;101041.94;;;18.05;98.47
5812;BME280;2932;52.400;9.558;2023-10-09T13:50:25;101042.13;;;18.26;98.41
5812;BME280;2932;52.400;9.558;2023-10-09T13:52:57;101052.59;;;18.33;98.02
5812;BME280;2932;52.400;9.558;2023-10-09T13:55:22;101049.03;;;18.43;97.75
5812;BME280;2932;52.400;9.558;2023-10-09T13:57:48;101052.22;;;18.42;97.09
5812;BME280;2932;52.400;9.558;2023-10-09T14:00:14;101056.22;;;18.41;96.57
5812;BME280;2932;52.400;9.558;2023-10-09T14:02:43;101056.31;;;18.51;96.64
5812;BME280;2932;52.400;9.558;2023-10-09T14:05:11;101058.81;;;18.63;96.53
5812;BME280;2932;52.400;9.558;2023-10-09T14:07:36;101062.34;;;18.57;96.37
5812;BME280;2932;52.400;9.558;2023-10-09T14:10:02;101065.53;;;18.55;96.45
5812;BME280;2932;52.400;9.558;2023-10-09T14:12:42;101054.72;;;18.54;96.84